UAL155 PTPN-PTKK
Flight info
| Callsign | UAL155 |
|---|---|
| Flight time | 1h 3m |
| Altitude | 36000 |
| Route | BIRUQ R584 MICNO |
| Aircraft | B738/M-SDE2E3FGHIRWXY/LB1 |
Departure
| Time | 2026-04-13 01:38 |
|---|---|
| Airport | Pohnpei International Airport (PTPN) |
Arrival
| Time | 2026-04-13 02:42 |
|---|---|
| Airport | Chuuk International Airport (PTKK) |
| Time | Latitude | Longitude | Altitude | Speed | Heading |
|---|---|---|---|---|---|
| 2026-04-13 01:38 | 6.98516 | 158.20420 | 19 ft | 19 kts | 84° |
| 2026-04-13 01:38 | 6.98515 | 158.20896 | 21 ft | 118 kts | 91° |
| 2026-04-13 01:38 | 6.98505 | 158.21974 | 303 ft | 179 kts | 91° |
| 2026-04-13 01:38 | 6.98778 | 158.23295 | 1227 ft | 214 kts | 65° |
| 2026-04-13 01:39 | 6.99939 | 158.24320 | 2278 ft | 235 kts | 22° |
| 2026-04-13 01:39 | 7.01602 | 158.24386 | 3193 ft | 252 kts | 340° |
| 2026-04-13 01:39 | 7.03001 | 158.23360 | 4046 ft | 261 kts | 301° |
| 2026-04-13 01:39 | 7.03511 | 158.21619 | 4918 ft | 264 kts | 262° |
| 2026-04-13 01:40 | 7.02839 | 158.19941 | 5963 ft | 263 kts | 226° |
| 2026-04-13 01:40 | 7.01342 | 158.18903 | 7068 ft | 264 kts | 210° |
| 2026-04-13 01:40 | 6.99928 | 158.17739 | 8136 ft | 263 kts | 234° |
| 2026-04-13 01:40 | 6.99209 | 158.16060 | 9295 ft | 265 kts | 259° |
| 2026-04-13 01:41 | 6.99216 | 158.14190 | 10324 ft | 272 kts | 270° |
| 2026-04-13 01:41 | 6.99309 | 158.12230 | 10918 ft | 291 kts | 270° |
| 2026-04-13 01:41 | 6.99429 | 158.10141 | 11550 ft | 306 kts | 271° |
| 2026-04-13 01:41 | 6.99569 | 158.07969 | 12315 ft | 314 kts | 271° |
| 2026-04-13 01:42 | 6.99720 | 158.05765 | 13246 ft | 318 kts | 271° |
| 2026-04-13 01:42 | 6.99879 | 158.03521 | 14066 ft | 324 kts | 271° |
| 2026-04-13 01:42 | 7.00044 | 158.01245 | 14834 ft | 329 kts | 271° |
| 2026-04-13 01:43 | 7.00558 | 157.94196 | 17081 ft | 345 kts | 271° |
| 2026-04-13 01:43 | 7.00734 | 157.91773 | 17802 ft | 350 kts | 271° |
| 2026-04-13 01:43 | 7.00913 | 157.89319 | 18461 ft | 355 kts | 271° |
| 2026-04-13 01:44 | 7.01096 | 157.86825 | 19071 ft | 359 kts | 271° |
| 2026-04-13 01:44 | 7.01279 | 157.84314 | 19686 ft | 363 kts | 272° |
| 2026-04-13 01:44 | 7.01464 | 157.81767 | 20292 ft | 367 kts | 271° |
| 2026-04-13 01:44 | 7.01647 | 157.79244 | 20872 ft | 371 kts | 271° |
| 2026-04-13 01:45 | 7.01836 | 157.76643 | 21456 ft | 375 kts | 271° |
| 2026-04-13 01:45 | 7.02027 | 157.74012 | 22044 ft | 378 kts | 272° |
| 2026-04-13 01:45 | 7.02220 | 157.71358 | 22612 ft | 382 kts | 272° |
| 2026-04-13 01:45 | 7.02433 | 157.68679 | 23188 ft | 386 kts | 272° |
| 2026-04-13 01:46 | 7.02654 | 157.65968 | 23678 ft | 390 kts | 272° |
| 2026-04-13 01:46 | 7.02874 | 157.63233 | 24127 ft | 394 kts | 272° |
| 2026-04-13 01:46 | 7.03096 | 157.60489 | 24573 ft | 398 kts | 272° |
| 2026-04-13 01:46 | 7.03320 | 157.57703 | 25031 ft | 401 kts | 272° |
| 2026-04-13 01:47 | 7.03387 | 157.56865 | 25168 ft | 402 kts | 272° |
| 2026-04-13 01:47 | 7.03555 | 157.54786 | 25494 ft | 405 kts | 272° |
| 2026-04-13 01:48 | 7.03783 | 157.51951 | 25935 ft | 409 kts | 272° |
| 2026-04-13 01:48 | 7.04013 | 157.49085 | 26381 ft | 412 kts | 272° |
| 2026-04-13 01:48 | 7.04245 | 157.46194 | 26799 ft | 416 kts | 272° |
| 2026-04-13 01:48 | 7.04480 | 157.43273 | 27224 ft | 420 kts | 272° |
| 2026-04-13 01:49 | 7.04716 | 157.40330 | 27640 ft | 424 kts | 272° |
| 2026-04-13 01:49 | 7.04954 | 157.37361 | 28050 ft | 428 kts | 272° |
| 2026-04-13 01:49 | 7.05193 | 157.34363 | 28457 ft | 432 kts | 272° |
| 2026-04-13 01:49 | 7.05435 | 157.31337 | 28853 ft | 435 kts | 272° |
| 2026-04-13 01:50 | 7.05679 | 157.28285 | 29247 ft | 439 kts | 272° |
| 2026-04-13 01:50 | 7.05922 | 157.25250 | 29590 ft | 442 kts | 272° |
| 2026-04-13 01:50 | 7.06172 | 157.22111 | 29842 ft | 446 kts | 272° |
| 2026-04-13 01:50 | 7.06418 | 157.19031 | 30091 ft | 449 kts | 272° |
| 2026-04-13 01:51 | 7.06667 | 157.15892 | 30338 ft | 451 kts | 272° |
| 2026-04-13 01:51 | 7.06919 | 157.12738 | 30596 ft | 453 kts | 272° |
| 2026-04-13 01:51 | 7.07171 | 157.09569 | 30842 ft | 455 kts | 272° |
| 2026-04-13 01:51 | 7.07424 | 157.06385 | 31088 ft | 457 kts | 272° |
| 2026-04-13 01:52 | 7.07678 | 157.03184 | 31332 ft | 459 kts | 272° |
| 2026-04-13 01:52 | 7.07932 | 156.99972 | 31576 ft | 461 kts | 272° |
| 2026-04-13 01:52 | 7.08188 | 156.96749 | 31812 ft | 463 kts | 272° |
| 2026-04-13 01:52 | 7.08445 | 156.93503 | 32036 ft | 465 kts | 272° |
| 2026-04-13 01:53 | 7.08702 | 156.90254 | 32259 ft | 467 kts | 272° |
| 2026-04-13 01:53 | 7.08960 | 156.86986 | 32474 ft | 469 kts | 271° |
| 2026-04-13 01:53 | 7.09219 | 156.83704 | 32691 ft | 471 kts | 271° |
| 2026-04-13 01:53 | 7.09479 | 156.80411 | 32897 ft | 473 kts | 271° |
| 2026-04-13 01:54 | 7.09739 | 156.77108 | 33098 ft | 474 kts | 271° |
| 2026-04-13 01:54 | 7.10000 | 156.73792 | 33294 ft | 476 kts | 271° |
| 2026-04-13 01:54 | 7.10262 | 156.70468 | 33491 ft | 477 kts | 271° |
| 2026-04-13 01:54 | 7.10525 | 156.67124 | 33676 ft | 479 kts | 271° |
| 2026-04-13 01:55 | 7.10784 | 156.63817 | 33850 ft | 481 kts | 271° |
| 2026-04-13 01:55 | 7.11051 | 156.60413 | 34004 ft | 482 kts | 271° |
| 2026-04-13 01:55 | 7.11316 | 156.57044 | 34168 ft | 483 kts | 271° |
| 2026-04-13 01:55 | 7.11576 | 156.53714 | 34322 ft | 484 kts | 271° |
| 2026-04-13 01:56 | 7.11845 | 156.50286 | 34516 ft | 484 kts | 271° |
| 2026-04-13 01:56 | 7.12109 | 156.46906 | 34722 ft | 484 kts | 272° |
| 2026-04-13 01:56 | 7.12373 | 156.43527 | 34932 ft | 484 kts | 272° |
| 2026-04-13 01:56 | 7.12632 | 156.40197 | 35139 ft | 484 kts | 272° |
| 2026-04-13 01:57 | 7.12895 | 156.36823 | 35364 ft | 483 kts | 272° |
| 2026-04-13 01:57 | 7.13158 | 156.33450 | 35607 ft | 482 kts | 272° |
| 2026-04-13 01:57 | 7.13420 | 156.30087 | 35801 ft | 482 kts | 272° |
| 2026-04-13 01:58 | 7.13941 | 156.23361 | 35816 ft | 480 kts | 272° |
| 2026-04-13 01:58 | 7.14462 | 156.16649 | 35817 ft | 481 kts | 272° |
| 2026-04-13 01:59 | 7.14981 | 156.09940 | 35816 ft | 481 kts | 272° |
| 2026-04-13 01:59 | 7.15500 | 156.03227 | 35816 ft | 481 kts | 272° |
| 2026-04-13 02:00 | 7.16017 | 155.96512 | 35815 ft | 481 kts | 272° |
| 2026-04-13 02:00 | 7.16534 | 155.89794 | 35822 ft | 481 kts | 272° |
| 2026-04-13 02:01 | 7.16988 | 155.83896 | 35816 ft | 481 kts | 272° |
| 2026-04-13 02:01 | 7.17210 | 155.81001 | 35814 ft | 481 kts | 272° |
| 2026-04-13 02:02 | 7.17725 | 155.74271 | 35812 ft | 481 kts | 272° |
| 2026-04-13 02:02 | 7.18152 | 155.68688 | 35810 ft | 481 kts | 272° |
| 2026-04-13 02:03 | 7.18665 | 155.61965 | 35809 ft | 481 kts | 272° |
| 2026-04-13 02:03 | 7.19177 | 155.55242 | 35807 ft | 482 kts | 272° |
| 2026-04-13 02:04 | 7.19689 | 155.48518 | 35800 ft | 481 kts | 272° |
| 2026-04-13 02:04 | 7.20199 | 155.41796 | 35801 ft | 482 kts | 272° |
| 2026-04-13 02:05 | 7.20708 | 155.35069 | 35799 ft | 481 kts | 272° |
| 2026-04-13 02:05 | 7.21217 | 155.28342 | 35799 ft | 482 kts | 272° |
| 2026-04-13 02:06 | 7.21724 | 155.21621 | 35800 ft | 482 kts | 272° |
| 2026-04-13 02:06 | 7.22227 | 155.14938 | 35798 ft | 481 kts | 272° |
| 2026-04-13 02:07 | 7.22732 | 155.08218 | 35799 ft | 481 kts | 272° |
| 2026-04-13 02:07 | 7.23237 | 155.01488 | 35800 ft | 482 kts | 272° |
| 2026-04-13 02:08 | 7.23741 | 154.94761 | 35799 ft | 481 kts | 272° |
| 2026-04-13 02:08 | 7.24243 | 154.88043 | 35796 ft | 481 kts | 272° |
| 2026-04-13 02:09 | 7.24744 | 154.81315 | 35796 ft | 481 kts | 272° |
| 2026-04-13 02:09 | 7.25245 | 154.74592 | 35795 ft | 481 kts | 272° |
| 2026-04-13 02:10 | 7.25744 | 154.67865 | 35791 ft | 481 kts | 272° |
| 2026-04-13 02:10 | 7.26242 | 154.61155 | 35793 ft | 481 kts | 272° |
| 2026-04-13 02:11 | 7.26738 | 154.54440 | 35793 ft | 481 kts | 272° |
| 2026-04-13 02:11 | 7.27230 | 154.47769 | 35790 ft | 481 kts | 272° |
| 2026-04-13 02:12 | 7.27726 | 154.41043 | 35790 ft | 481 kts | 272° |
| 2026-04-13 02:12 | 7.28216 | 154.34376 | 35795 ft | 481 kts | 271° |
| 2026-04-13 02:13 | 7.28710 | 154.27650 | 35789 ft | 482 kts | 271° |
| 2026-04-13 02:13 | 7.29204 | 154.20909 | 35785 ft | 482 kts | 271° |
| 2026-04-13 02:14 | 7.29695 | 154.14179 | 35791 ft | 482 kts | 271° |
| 2026-04-13 02:14 | 7.30187 | 154.07440 | 35788 ft | 482 kts | 271° |
| 2026-04-13 02:15 | 7.30677 | 154.00703 | 35786 ft | 482 kts | 271° |
| 2026-04-13 02:15 | 7.31167 | 153.93961 | 35784 ft | 482 kts | 271° |
| 2026-04-13 02:16 | 7.31656 | 153.87216 | 35785 ft | 482 kts | 271° |
| 2026-04-13 02:16 | 7.32143 | 153.80482 | 35785 ft | 482 kts | 271° |
| 2026-04-13 02:16 | 7.32385 | 153.77124 | 35552 ft | 478 kts | 271° |
| 2026-04-13 02:17 | 7.32625 | 153.73770 | 34487 ft | 486 kts | 271° |
| 2026-04-13 02:17 | 7.32873 | 153.70326 | 33262 ft | 497 kts | 270° |
| 2026-04-13 02:17 | 7.33123 | 153.66880 | 32569 ft | 488 kts | 270° |
| 2026-04-13 02:17 | 7.33367 | 153.63495 | 31488 ft | 482 kts | 270° |
| 2026-04-13 02:18 | 7.33608 | 153.60138 | 30385 ft | 479 kts | 270° |
| 2026-04-13 02:18 | 7.33845 | 153.56832 | 29567 ft | 468 kts | 270° |
| 2026-04-13 02:18 | 7.34077 | 153.53611 | 28943 ft | 451 kts | 270° |
| 2026-04-13 02:18 | 7.34300 | 153.50486 | 28397 ft | 449 kts | 270° |
| 2026-04-13 02:19 | 7.34526 | 153.47327 | 27715 ft | 455 kts | 270° |
| 2026-04-13 02:19 | 7.34754 | 153.44139 | 27058 ft | 455 kts | 270° |
| 2026-04-13 02:19 | 7.34978 | 153.41015 | 26451 ft | 449 kts | 270° |
| 2026-04-13 02:19 | 7.35200 | 153.37897 | 25817 ft | 442 kts | 271° |
| 2026-04-13 02:20 | 7.35418 | 153.34834 | 25194 ft | 435 kts | 271° |
| 2026-04-13 02:20 | 7.35633 | 153.31811 | 24586 ft | 429 kts | 271° |
| 2026-04-13 02:20 | 7.35845 | 153.28837 | 23983 ft | 423 kts | 271° |
| 2026-04-13 02:20 | 7.36054 | 153.25889 | 23374 ft | 422 kts | 271° |
| 2026-04-13 02:21 | 7.36263 | 153.22945 | 22672 ft | 419 kts | 271° |
| 2026-04-13 02:21 | 7.36470 | 153.20030 | 22060 ft | 415 kts | 271° |
| 2026-04-13 02:21 | 7.36674 | 153.17146 | 21474 ft | 410 kts | 271° |
| 2026-04-13 02:21 | 7.36876 | 153.14295 | 20908 ft | 406 kts | 271° |
| 2026-04-13 02:22 | 7.37076 | 153.11474 | 20353 ft | 401 kts | 270° |
| 2026-04-13 02:22 | 7.37272 | 153.08688 | 19802 ft | 397 kts | 270° |
| 2026-04-13 02:22 | 7.37467 | 153.05923 | 19262 ft | 393 kts | 270° |
| 2026-04-13 02:22 | 7.37660 | 153.03193 | 18736 ft | 389 kts | 270° |
| 2026-04-13 02:23 | 7.37851 | 153.00487 | 18216 ft | 385 kts | 270° |
| 2026-04-13 02:23 | 7.38040 | 152.97810 | 17646 ft | 381 kts | 270° |
| 2026-04-13 02:23 | 7.38226 | 152.95161 | 17115 ft | 377 kts | 270° |
| 2026-04-13 02:23 | 7.38410 | 152.92546 | 16612 ft | 372 kts | 270° |
| 2026-04-13 02:24 | 7.38592 | 152.89962 | 16133 ft | 367 kts | 270° |
| 2026-04-13 02:24 | 7.38771 | 152.87413 | 15666 ft | 363 kts | 270° |
| 2026-04-13 02:24 | 7.38947 | 152.84897 | 15200 ft | 358 kts | 270° |
| 2026-04-13 02:24 | 7.39122 | 152.82407 | 14749 ft | 355 kts | 270° |
| 2026-04-13 02:25 | 7.39295 | 152.79941 | 14296 ft | 351 kts | 270° |
| 2026-04-13 02:25 | 7.39466 | 152.77501 | 13862 ft | 347 kts | 270° |
| 2026-04-13 02:25 | 7.39634 | 152.75088 | 13397 ft | 344 kts | 270° |
| 2026-04-13 02:25 | 7.39802 | 152.72691 | 12918 ft | 341 kts | 270° |
| 2026-04-13 02:26 | 7.39965 | 152.70356 | 12484 ft | 337 kts | 270° |
| 2026-04-13 02:26 | 7.40128 | 152.68017 | 12050 ft | 333 kts | 270° |
| 2026-04-13 02:26 | 7.40292 | 152.65672 | 11624 ft | 329 kts | 270° |
| 2026-04-13 02:26 | 7.40451 | 152.63386 | 11202 ft | 326 kts | 270° |
| 2026-04-13 02:27 | 7.40606 | 152.61158 | 10937 ft | 319 kts | 270° |
| 2026-04-13 02:27 | 7.40759 | 152.58965 | 10771 ft | 308 kts | 270° |
| 2026-04-13 02:27 | 7.40906 | 152.56849 | 10615 ft | 299 kts | 270° |
| 2026-04-13 02:27 | 7.41049 | 152.54796 | 10461 ft | 290 kts | 270° |
| 2026-04-13 02:28 | 7.41187 | 152.52803 | 10310 ft | 280 kts | 270° |
| 2026-04-13 02:28 | 7.41321 | 152.50877 | 10180 ft | 271 kts | 270° |
| 2026-04-13 02:28 | 7.41451 | 152.49008 | 10042 ft | 263 kts | 270° |
| 2026-04-13 02:28 | 7.41578 | 152.47176 | 9912 ft | 255 kts | 270° |
| 2026-04-13 02:29 | 7.41698 | 152.45441 | 9758 ft | 251 kts | 270° |
| 2026-04-13 02:29 | 7.41819 | 152.43690 | 9490 ft | 250 kts | 270° |
| 2026-04-13 02:29 | 7.41939 | 152.41949 | 9191 ft | 249 kts | 269° |
| 2026-04-13 02:29 | 7.42060 | 152.40213 | 8899 ft | 247 kts | 270° |
| 2026-04-13 02:30 | 7.42178 | 152.38496 | 8630 ft | 245 kts | 269° |
| 2026-04-13 02:30 | 7.42296 | 152.36792 | 8368 ft | 244 kts | 269° |
| 2026-04-13 02:30 | 7.42417 | 152.35088 | 8104 ft | 244 kts | 271° |
| 2026-04-13 02:30 | 7.42881 | 152.33421 | 7807 ft | 251 kts | 286° |
| 2026-04-13 02:31 | 7.43536 | 152.31798 | 7540 ft | 249 kts | 285° |
| 2026-04-13 02:31 | 7.44185 | 152.30178 | 7281 ft | 249 kts | 285° |
| 2026-04-13 02:31 | 7.44836 | 152.28561 | 7021 ft | 249 kts | 285° |
| 2026-04-13 02:31 | 7.45489 | 152.26943 | 6750 ft | 249 kts | 285° |
| 2026-04-13 02:32 | 7.46142 | 152.25329 | 6477 ft | 249 kts | 286° |
| 2026-04-13 02:32 | 7.46794 | 152.23716 | 6195 ft | 248 kts | 286° |
| 2026-04-13 02:32 | 7.47439 | 152.22120 | 5904 ft | 242 kts | 285° |
| 2026-04-13 02:32 | 7.48063 | 152.20578 | 5630 ft | 233 kts | 285° |
| 2026-04-13 02:33 | 7.48662 | 152.19097 | 5368 ft | 224 kts | 285° |
| 2026-04-13 02:33 | 7.49243 | 152.17660 | 5128 ft | 220 kts | 284° |
| 2026-04-13 02:33 | 7.49820 | 152.16232 | 4892 ft | 219 kts | 284° |
| 2026-04-13 02:33 | 7.50387 | 152.14831 | 4675 ft | 219 kts | 284° |
| 2026-04-13 02:34 | 7.50958 | 152.13420 | 4477 ft | 214 kts | 284° |
| 2026-04-13 02:34 | 7.51505 | 152.12068 | 4292 ft | 202 kts | 284° |
| 2026-04-13 02:34 | 7.52022 | 152.10790 | 4087 ft | 192 kts | 284° |
| 2026-04-13 02:34 | 7.52513 | 152.09578 | 3980 ft | 183 kts | 283° |
| 2026-04-13 02:35 | 7.52982 | 152.08415 | 3911 ft | 176 kts | 283° |
| 2026-04-13 02:35 | 7.53437 | 152.07287 | 3804 ft | 173 kts | 283° |
| 2026-04-13 02:35 | 7.53889 | 152.06168 | 3714 ft | 172 kts | 283° |
| 2026-04-13 02:35 | 7.54340 | 152.05053 | 3629 ft | 172 kts | 283° |
| 2026-04-13 02:36 | 7.54792 | 152.03935 | 3537 ft | 173 kts | 283° |
| 2026-04-13 02:36 | 7.55245 | 152.02811 | 3475 ft | 174 kts | 283° |
| 2026-04-13 02:36 | 7.55701 | 152.01682 | 3420 ft | 174 kts | 283° |
| 2026-04-13 02:36 | 7.56158 | 152.00553 | 3346 ft | 174 kts | 283° |
| 2026-04-13 02:37 | 7.56612 | 151.99428 | 3265 ft | 173 kts | 283° |
| 2026-04-13 02:37 | 7.57059 | 151.98323 | 3151 ft | 168 kts | 283° |
| 2026-04-13 02:37 | 7.57424 | 151.97234 | 3007 ft | 157 kts | 265° |
| 2026-04-13 02:37 | 7.57189 | 151.96235 | 2822 ft | 144 kts | 234° |
| 2026-04-13 02:38 | 7.56584 | 151.95437 | 2659 ft | 144 kts | 227° |
| 2026-04-13 02:38 | 7.55936 | 151.94667 | 2489 ft | 144 kts | 226° |
| 2026-04-13 02:38 | 7.55278 | 151.93914 | 2348 ft | 143 kts | 225° |
| 2026-04-13 02:38 | 7.54613 | 151.93174 | 2236 ft | 142 kts | 224° |
| 2026-04-13 02:39 | 7.53946 | 151.92446 | 2130 ft | 138 kts | 224° |
| 2026-04-13 02:39 | 7.53317 | 151.91765 | 1998 ft | 127 kts | 224° |
| 2026-04-13 02:39 | 7.52710 | 151.91119 | 1769 ft | 127 kts | 223° |
| 2026-04-13 02:39 | 7.52112 | 151.90483 | 1525 ft | 125 kts | 222° |
| 2026-04-13 02:40 | 7.51526 | 151.89852 | 1418 ft | 124 kts | 224° |
| 2026-04-13 02:40 | 7.50912 | 151.89202 | 1298 ft | 129 kts | 222° |
| 2026-04-13 02:40 | 7.50261 | 151.88525 | 1140 ft | 140 kts | 224° |
| 2026-04-13 02:40 | 7.49587 | 151.87822 | 1047 ft | 137 kts | 223° |
| 2026-04-13 02:41 | 7.48949 | 151.87161 | 942 ft | 129 kts | 224° |
| 2026-04-13 02:41 | 7.48343 | 151.86522 | 718 ft | 127 kts | 224° |
| 2026-04-13 02:41 | 7.47721 | 151.85857 | 370 ft | 132 kts | 223° |
| 2026-04-13 02:41 | 7.47077 | 151.85195 | 116 ft | 127 kts | 219° |
| 2026-04-13 02:42 | 7.46495 | 151.84610 | 11 ft | 109 kts | 220° |
| 2026-04-13 02:42 | 7.46136 | 151.84258 | 11 ft | 28 kts | 229° |
| 2026-04-13 02:42 | 7.46078 | 151.84193 | 11 ft | 1 kts | 229° |
| 2026-04-13 02:42 | 7.46008 | 151.84115 | 13 ft | 28 kts | 227° |
| 2026-04-13 02:43 | 7.45874 | 151.84065 | 15 ft | 25 kts | 147° |
| 2026-04-13 02:43 | 7.45770 | 151.84150 | 18 ft | 7 kts | 166° |
| 2026-04-13 02:43 | 7.45764 | 151.84152 | 17 ft | 0 kts | 143° |